sensor_id;sensor_type;location;lat;lon;timestamp;pressure;altitude;pressure_sealevel;temperature;humidity
10720;BME280;5411;58.386;15.560;2023-10-19T00:01:28;100690.97;;;1.57;100.00
10720;BME280;5411;58.386;15.560;2023-10-19T00:03:55;100686.22;;;1.61;100.00
10720;BME280;5411;58.386;15.560;2023-10-19T00:06:26;100684.88;;;1.66;100.00
10720;BME280;5411;58.386;15.560;2023-10-19T00:08:56;100687.94;;;1.71;100.00
10720;BME280;5411;58.386;15.560;2023-10-19T00:11:26;100682.91;;;1.78;100.00
10720;BME280;5411;58.386;15.560;2023-10-19T00:13:58;100679.75;;;1.84;100.00
10720;BME280;5411;58.386;15.560;2023-10-19T00:16:26;100682.91;;;1.88;100.00
10720;BME280;5411;58.386;15.560;2023-10-19T00:18:56;100681.41;;;1.95;100.00
10720;BME280;5411;58.386;15.560;2023-10-19T00:21:26;100677.34;;;2.00;100.00
10720;BME280;5411;58.386;15.560;2023-10-19T00:23:57;100678.88;;;2.03;100.00
10720;BME280;5411;58.386;15.560;2023-10-19T00:26:25;100680.28;;;2.07;100.00
10720;BME280;5411;58.386;15.560;2023-10-19T00:28:58;100676.25;;;2.12;100.00
10720;BME280;5411;58.386;15.560;2023-10-19T00:31:32;100676.94;;;2.14;100.00
10720;BME280;5411;58.386;15.560;2023-10-19T00:34:07;100680.00;;;2.20;100.00
10720;BME280;5411;58.386;15.560;2023-10-19T00:36:35;100672.63;;;2.23;100.00
10720;BME280;5411;58.386;15.560;2023-10-19T00:39:07;100670.81;;;2.24;100.00
10720;BME280;5411;58.386;15.560;2023-10-19T00:41:48;100669.03;;;2.24;100.00
10720;BME280;5411;58.386;15.560;2023-10-19T00:44:17;100666.78;;;2.29;100.00
10720;BME280;5411;58.386;15.560;2023-10-19T00:46:49;100665.66;;;2.32;100.00
10720;BME280;5411;58.386;15.560;2023-10-19T00:49:27;100670.81;;;2.33;100.00
10720;BME280;5411;58.386;15.560;2023-10-19T00:51:56;100666.06;;;2.37;100.00
10720;BME280;5411;58.386;15.560;2023-10-19T00:54:32;100664.97;;;2.39;100.00
10720;BME280;5411;58.386;15.560;2023-10-19T00:57:05;100663.81;;;2.42;100.00
10720;BME280;5411;58.386;15.560;2023-10-19T00:59:38;100660.91;;;2.45;100.00
10720;BME280;5411;58.386;15.560;2023-10-19T01:02:10;100668.69;;;2.46;100.00
10720;BME280;5411;58.386;15.560;2023-10-19T01:04:52;100665.63;;;2.51;100.00
10720;BME280;5411;58.386;15.560;2023-10-19T01:07:27;100662.84;;;2.53;100.00
10720;BME280;5411;58.386;15.560;2023-10-19T01:09:59;100657.13;;;2.57;100.00
10720;BME280;5411;58.386;15.560;2023-10-19T01:12:31;100656.00;;;2.60;100.00
10720;BME280;5411;58.386;15.560;2023-10-19T01:15:08;100658.34;;;2.63;100.00
10720;BME280;5411;58.386;15.560;2023-10-19T01:17:44;100652.63;;;2.67;100.00
10720;BME280;5411;58.386;15.560;2023-10-19T01:20:16;100660.81;;;2.74;100.00
10720;BME280;5411;58.386;15.560;2023-10-19T01:22:57;100660.53;;;2.77;100.00
10720;BME280;5411;58.386;15.560;2023-10-19T01:25:42;100650.81;;;2.77;100.00
10720;BME280;5411;58.386;15.560;2023-10-19T01:28:17;100655.25;;;2.77;100.00
10720;BME280;5411;58.386;15.560;2023-10-19T01:30:46;100660.22;;;2.80;100.00
10720;BME280;5411;58.386;15.560;2023-10-19T01:33:19;100652.16;;;2.81;100.00
10720;BME280;5411;58.386;15.560;2023-10-19T01:35:48;100650.88;;;2.85;100.00
10720;BME280;5411;58.386;15.560;2023-10-19T01:38:35;100647.97;;;2.89;100.00
10720;BME280;5411;58.386;15.560;2023-10-19T01:41:05;100652.97;;;2.92;100.00
10720;BME280;5411;58.386;15.560;2023-10-19T01:43:43;100637.34;;;2.98;100.00
10720;BME280;5411;58.386;15.560;2023-10-19T01:46:16;100637.75;;;3.03;100.00
10720;BME280;5411;58.386;15.560;2023-10-19T01:48:53;100631.16;;;3.07;100.00
10720;BME280;5411;58.386;15.560;2023-10-19T01:51:30;100636.84;;;3.12;100.00
10720;BME280;5411;58.386;15.560;2023-10-19T01:54:02;100636.41;;;3.17;100.00
10720;BME280;5411;58.386;15.560;2023-10-19T01:56:32;100640.56;;;3.19;100.00
10720;BME280;5411;58.386;15.560;2023-10-19T01:59:02;100629.00;;;3.20;100.00
10720;BME280;5411;58.386;15.560;2023-10-19T02:01:31;100625.22;;;3.23;100.00
10720;BME280;5411;58.386;15.560;2023-10-19T02:04:01;100629.94;;;3.29;100.00
10720;BME280;5411;58.386;15.560;2023-10-19T02:06:33;100633.91;;;3.33;100.00
10720;BME280;5411;58.386;15.560;2023-10-19T02:09:06;100635.16;;;3.39;100.00
10720;BME280;5411;58.386;15.560;2023-10-19T02:11:45;100631.53;;;3.40;100.00
10720;BME280;5411;58.386;15.560;2023-10-19T02:14:17;100640.00;;;3.43;100.00
10720;BME280;5411;58.386;15.560;2023-10-19T02:16:47;100626.78;;;3.43;100.00
10720;BME280;5411;58.386;15.560;2023-10-19T02:19:18;100628.44;;;3.44;100.00
10720;BME280;5411;58.386;15.560;2023-10-19T02:21:48;100628.44;;;3.44;100.00
10720;BME280;5411;58.386;15.560;2023-10-19T02:24:18;100627.75;;;3.42;100.00
10720;BME280;5411;58.386;15.560;2023-10-19T02:26:51;100635.69;;;3.42;100.00
10720;BME280;5411;58.386;15.560;2023-10-19T02:29:18;100624.13;;;3.43;100.00
10720;BME280;5411;58.386;15.560;2023-10-19T02:31:47;100616.19;;;3.43;100.00
10720;BME280;5411;58.386;15.560;2023-10-19T02:34:18;100617.53;;;3.47;100.00
10720;BME280;5411;58.386;15.560;2023-10-19T02:36:49;100619.88;;;3.50;100.00
10720;BME280;5411;58.386;15.560;2023-10-19T02:39:18;100612.94;;;3.49;100.00
10720;BME280;5411;58.386;15.560;2023-10-19T02:41:48;100613.63;;;3.51;100.00
10720;BME280;5411;58.386;15.560;2023-10-19T02:44:19;100609.00;;;3.53;100.00
10720;BME280;5411;58.386;15.560;2023-10-19T02:46:50;100615.97;;;3.54;100.00
10720;BME280;5411;58.386;15.560;2023-10-19T02:49:21;100611.38;;;3.56;100.00
10720;BME280;5411;58.386;15.560;2023-10-19T02:51:53;100613.88;;;3.58;100.00
10720;BME280;5411;58.386;15.560;2023-10-19T02:54:24;100608.25;;;3.61;100.00
10720;BME280;5411;58.386;15.560;2023-10-19T02:56:55;100607.13;;;3.64;100.00
10720;BME280;5411;58.386;15.560;2023-10-19T02:59:24;100609.75;;;3.64;100.00
10720;BME280;5411;58.386;15.560;2023-10-19T03:01:55;100609.75;;;3.64;100.00
10720;BME280;5411;58.386;15.560;2023-10-19T03:04:34;100608.94;;;3.63;100.00
10720;BME280;5411;58.386;15.560;2023-10-19T03:07:03;100623.13;;;3.62;100.00
10720;BME280;5411;58.386;15.560;2023-10-19T03:09:33;100615.53;;;3.59;100.00
10720;BME280;5411;58.386;15.560;2023-10-19T03:12:04;100616.50;;;3.58;100.00
10720;BME280;5411;58.386;15.560;2023-10-19T03:14:39;100606.22;;;3.55;100.00
10720;BME280;5411;58.386;15.560;2023-10-19T03:17:11;100619.16;;;3.58;100.00
10720;BME280;5411;58.386;15.560;2023-10-19T03:19:41;100609.91;;;3.62;100.00
10720;BME280;5411;58.386;15.560;2023-10-19T03:22:13;100607.81;;;3.66;100.00
10720;BME280;5411;58.386;15.560;2023-10-19T03:24:43;100599.72;;;3.67;100.00
10720;BME280;5411;58.386;15.560;2023-10-19T03:27:13;100600.69;;;3.66;100.00
10720;BME280;5411;58.386;15.560;2023-10-19T03:29:44;100608.47;;;3.68;100.00
10720;BME280;5411;58.386;15.560;2023-10-19T03:32:15;100613.78;;;3.68;100.00
10720;BME280;5411;58.386;15.560;2023-10-19T03:34:45;100613.63;;;3.69;100.00
10720;BME280;5411;58.386;15.560;2023-10-19T03:37:17;100596.25;;;3.67;100.00
10720;BME280;5411;58.386;15.560;2023-10-19T03:39:48;100617.00;;;3.62;100.00
10720;BME280;5411;58.386;15.560;2023-10-19T03:42:18;100608.38;;;3.59;100.00
10720;BME280;5411;58.386;15.560;2023-10-19T03:44:48;100617.63;;;3.55;100.00
10720;BME280;5411;58.386;15.560;2023-10-19T03:47:21;100606.66;;;3.50;100.00
10720;BME280;5411;58.386;15.560;2023-10-19T03:49:53;100612.56;;;3.44;100.00
10720;BME280;5411;58.386;15.560;2023-10-19T03:52:26;100613.91;;;3.48;100.00
10720;BME280;5411;58.386;15.560;2023-10-19T03:55:01;100627.59;;;3.44;100.00
10720;BME280;5411;58.386;15.560;2023-10-19T03:57:32;100627.22;;;3.39;100.00
10720;BME280;5411;58.386;15.560;2023-10-19T04:00:04;100618.59;;;3.37;100.00
10720;BME280;5411;58.386;15.560;2023-10-19T04:02:43;100612.63;;;3.35;100.00
10720;BME280;5411;58.386;15.560;2023-10-19T04:05:15;100605.53;;;3.35;100.00
10720;BME280;5411;58.386;15.560;2023-10-19T04:07:47;100605.53;;;3.35;100.00
10720;BME280;5411;58.386;15.560;2023-10-19T04:10:20;100624.19;;;3.34;100.00
10720;BME280;5411;58.386;15.560;2023-10-19T04:13:08;100624.50;;;3.31;100.00
10720;BME280;5411;58.386;15.560;2023-10-19T04:15:40;100618.53;;;3.29;100.00
10720;BME280;5411;58.386;15.560;2023-10-19T04:18:09;100622.00;;;3.29;100.00
10720;BME280;5411;58.386;15.560;2023-10-19T04:20:38;100622.16;;;3.28;100.00
10720;BME280;5411;58.386;15.560;2023-10-19T04:23:24;100615.03;;;3.28;100.00
10720;BME280;5411;58.386;15.560;2023-10-19T04:25:57;100612.25;;;3.30;100.00
10720;BME280;5411;58.386;15.560;2023-10-19T04:28:31;100619.34;;;3.29;100.00
10720;BME280;5411;58.386;15.560;2023-10-19T04:31:05;100614.75;;;3.31;100.00
10720;BME280;5411;58.386;15.560;2023-10-19T04:33:35;100621.53;;;3.34;100.00
10720;BME280;5411;58.386;15.560;2023-10-19T04:36:04;100621.84;;;3.31;100.00
10720;BME280;5411;58.386;15.560;2023-10-19T04:38:35;100627.44;;;3.28;100.00
10720;BME280;5411;58.386;15.560;2023-10-19T04:41:06;100627.72;;;3.25;100.00
10720;BME280;5411;58.386;15.560;2023-10-19T04:43:38;100624.53;;;3.21;100.00
10720;BME280;5411;58.386;15.560;2023-10-19T04:46:10;100618.41;;;3.20;100.00
10720;BME280;5411;58.386;15.560;2023-10-19T04:48:39;100615.13;;;3.18;100.00
10720;BME280;5411;58.386;15.560;2023-10-19T04:51:09;100621.25;;;3.19;100.00
10720;BME280;5411;58.386;15.560;2023-10-19T04:53:38;100618.28;;;3.22;100.00
10720;BME280;5411;58.386;15.560;2023-10-19T04:56:16;100619.25;;;3.21;100.00
10720;BME280;5411;58.386;15.560;2023-10-19T04:58:45;100627.72;;;3.25;100.00
10720;BME280;5411;58.386;15.560;2023-10-19T05:01:14;100623.97;;;3.27;100.00
10720;BME280;5411;58.386;15.560;2023-10-19T05:03:42;100619.34;;;3.29;100.00
10720;BME280;5411;58.386;15.560;2023-10-19T05:06:13;100621.03;;;3.30;100.00
10720;BME280;5411;58.386;15.560;2023-10-19T05:08:42;100610.44;;;3.30;100.00
10720;BME280;5411;58.386;15.560;2023-10-19T05:11:14;100609.75;;;3.28;100.00
10720;BME280;5411;58.386;15.560;2023-10-19T05:13:43;100605.75;;;3.24;100.00
10720;BME280;5411;58.386;15.560;2023-10-19T05:16:12;100603.38;;;3.21;100.00
10720;BME280;5411;58.386;15.560;2023-10-19T05:18:40;100610.50;;;3.20;100.00
10720;BME280;5411;58.386;15.560;2023-10-19T05:21:08;100604.38;;;3.20;100.00
10720;BME280;5411;58.386;15.560;2023-10-19T05:23:39;100602.28;;;3.23;100.00
10720;BME280;5411;58.386;15.560;2023-10-19T05:26:08;100601.00;;;3.28;100.00
10720;BME280;5411;58.386;15.560;2023-10-19T05:28:39;100606.81;;;3.31;100.00
10720;BME280;5411;58.386;15.560;2023-10-19T05:31:09;100604.19;;;3.31;100.00
10720;BME280;5411;58.386;15.560;2023-10-19T05:33:39;100605.16;;;3.30;100.00
10720;BME280;5411;58.386;15.560;2023-10-19T05:36:07;100601.81;;;3.28;100.00
10720;BME280;5411;58.386;15.560;2023-10-19T05:38:36;100599.91;;;3.20;100.00
10720;BME280;5411;58.386;15.560;2023-10-19T05:41:07;100616.09;;;3.17;100.00
10720;BME280;5411;58.386;15.560;2023-10-19T05:43:40;100611.09;;;3.14;100.00
10720;BME280;5411;58.386;15.560;2023-10-19T05:46:09;100612.75;;;3.15;100.00
10720;BME280;5411;58.386;15.560;2023-10-19T05:48:43;100609.97;;;3.17;100.00
10720;BME280;5411;58.386;15.560;2023-10-19T05:51:13;100603.38;;;3.21;100.00
10720;BME280;5411;58.386;15.560;2023-10-19T05:53:42;100600.47;;;3.24;100.00
10720;BME280;5411;58.386;15.560;2023-10-19T05:56:11;100607.56;;;3.23;100.00
10720;BME280;5411;58.386;15.560;2023-10-19T05:58:41;100601.59;;;3.21;100.00
10720;BME280;5411;58.386;15.560;2023-10-19T06:01:09;100606.34;;;3.18;100.00
10720;BME280;5411;58.386;15.560;2023-10-19T06:03:37;100605.81;;;3.14;100.00
10720;BME280;5411;58.386;15.560;2023-10-19T06:06:08;100611.69;;;3.08;100.00
10720;BME280;5411;58.386;15.560;2023-10-19T06:08:36;100602.69;;;3.01;100.00
10720;BME280;5411;58.386;15.560;2023-10-19T06:11:05;100602.28;;;2.96;100.00
10720;BME280;5411;58.386;15.560;2023-10-19T06:13:34;100604.72;;;2.90;100.00
10720;BME280;5411;58.386;15.560;2023-10-19T06:16:06;100605.53;;;2.90;100.00
10720;BME280;5411;58.386;15.560;2023-10-19T06:18:35;100603.75;;;2.91;100.00
10720;BME280;5411;58.386;15.560;2023-10-19T06:21:04;100598.59;;;2.89;100.00
10720;BME280;5411;58.386;15.560;2023-10-19T06:23:33;100589.84;;;2.89;100.00
10720;BME280;5411;58.386;15.560;2023-10-19T06:26:08;100586.22;;;2.90;100.00
10720;BME280;5411;58.386;15.560;2023-10-19T06:28:38;100590.53;;;2.91;100.00
10720;BME280;5411;58.386;15.560;2023-10-19T06:31:09;100591.34;;;2.91;100.00
10720;BME280;5411;58.386;15.560;2023-10-19T06:33:41;100602.91;;;2.90;100.00
10720;BME280;5411;58.386;15.560;2023-10-19T06:36:10;100596.78;;;2.90;100.00
10720;BME280;5411;58.386;15.560;2023-10-19T06:38:39;100594.97;;;2.90;100.00
10720;BME280;5411;58.386;15.560;2023-10-19T06:41:12;100590.66;;;2.89;100.00
10720;BME280;5411;58.386;15.560;2023-10-19T06:43:42;100590.22;;;2.94;100.00
10720;BME280;5411;58.386;15.560;2023-10-19T06:46:12;100595.88;;;2.99;100.00
10720;BME280;5411;58.386;15.560;2023-10-19T06:48:44;100592.97;;;3.02;100.00
10720;BME280;5411;58.386;15.560;2023-10-19T06:51:13;100593.25;;;2.99;100.00
10720;BME280;5411;58.386;15.560;2023-10-19T06:53:46;100586.84;;;3.01;100.00
10720;BME280;5411;58.386;15.560;2023-10-19T06:56:14;100585.72;;;3.04;100.00
10720;BME280;5411;58.386;15.560;2023-10-19T06:58:43;100582.25;;;3.03;100.00
10720;BME280;5411;58.386;15.560;2023-10-19T07:01:13;100587.13;;;2.98;100.00
10720;BME280;5411;58.386;15.560;2023-10-19T07:03:43;100586.44;;;2.96;100.00
10720;BME280;5411;58.386;15.560;2023-10-19T07:06:12;100599.66;;;2.96;100.00
10720;BME280;5411;58.386;15.560;2023-10-19T07:08:44;100588.66;;;3.01;100.00
10720;BME280;5411;58.386;15.560;2023-10-19T07:11:13;100585.09;;;3.10;100.00
10720;BME280;5411;58.386;15.560;2023-10-19T07:13:41;100593.56;;;3.13;100.00
10720;BME280;5411;58.386;15.560;2023-10-19T07:16:13;100585.25;;;3.08;100.00
10720;BME280;5411;58.386;15.560;2023-10-19T07:18:41;100582.94;;;3.05;100.00
10720;BME280;5411;58.386;15.560;2023-10-19T07:21:09;100589.19;;;3.04;100.00
10720;BME280;5411;58.386;15.560;2023-10-19T07:23:38;100586.69;;;3.03;100.00
10720;BME280;5411;58.386;15.560;2023-10-19T07:26:07;100591.97;;;3.03;100.00
10720;BME280;5411;58.386;15.560;2023-10-19T07:28:37;100587.22;;;3.06;100.00
10720;BME280;5411;58.386;15.560;2023-10-19T07:31:06;100576.06;;;3.12;100.00
10720;BME280;5411;58.386;15.560;2023-10-19T07:33:41;100592.59;;;3.14;100.00
10720;BME280;5411;58.386;15.560;2023-10-19T07:36:13;100595.09;;;3.16;100.00
10720;BME280;5411;58.386;15.560;2023-10-19T07:38:44;100586.47;;;3.14;100.00
10720;BME280;5411;58.386;15.560;2023-10-19T07:41:13;100582.94;;;3.23;100.00
10720;BME280;5411;58.386;15.560;2023-10-19T07:43:44;100581.13;;;3.23;100.00
10720;BME280;5411;58.386;15.560;2023-10-19T07:46:13;100589.19;;;3.22;100.00
10720;BME280;5411;58.386;15.560;2023-10-19T07:48:43;100589.59;;;3.27;100.00
10720;BME280;5411;58.386;15.560;2023-10-19T07:51:11;100586.50;;;3.32;100.00
10720;BME280;5411;58.386;15.560;2023-10-19T07:53:39;100586.03;;;3.36;100.00
10720;BME280;5411;58.386;15.560;2023-10-19T07:56:08;100574.19;;;3.40;100.00
10720;BME280;5411;58.386;15.560;2023-10-19T07:58:39;100557.69;;;3.46;100.00
10720;BME280;5411;58.386;15.560;2023-10-19T08:01:08;100577.72;;;3.49;100.00
10720;BME280;5411;58.386;15.560;2023-10-19T08:03:38;100580.38;;;3.49;100.00
10720;BME280;5411;58.386;15.560;2023-10-19T08:06:08;100580.91;;;3.52;100.00
10720;BME280;5411;58.386;15.560;2023-10-19T08:08:37;100589.13;;;3.49;100.00
10720;BME280;5411;58.386;15.560;2023-10-19T08:11:05;100582.25;;;3.56;100.00
10720;BME280;5411;58.386;15.560;2023-10-19T08:13:33;100576.72;;;3.68;100.00
10720;BME280;5411;58.386;15.560;2023-10-19T08:16:02;100586.03;;;3.72;100.00
10720;BME280;5411;58.386;15.560;2023-10-19T08:18:30;100580.06;;;3.70;100.00
10720;BME280;5411;58.386;15.560;2023-10-19T08:20:59;100574.97;;;3.76;100.00
10720;BME280;5411;58.386;15.560;2023-10-19T08:23:30;100577.56;;;3.86;100.00
10720;BME280;5411;58.386;15.560;2023-10-19T08:25:58;100576.91;;;3.92;100.00
10720;BME280;5411;58.386;15.560;2023-10-19T08:28:27;100580.72;;;4.15;100.00
10720;BME280;5411;58.386;15.560;2023-10-19T08:30:56;100572.19;;;4.29;100.00
10720;BME280;5411;58.386;15.560;2023-10-19T08:33:25;100576.22;;;4.42;100.00
10720;BME280;5411;58.386;15.560;2023-10-19T08:35:57;100573.34;;;4.61;100.00
10720;BME280;5411;58.386;15.560;2023-10-19T08:38:28;100567.59;;;4.65;100.00
10720;BME280;5411;58.386;15.560;2023-10-19T08:40:57;100568.44;;;4.74;100.00
10720;BME280;5411;58.386;15.560;2023-10-19T08:43:25;100569.59;;;4.80;97.21
10720;BME280;5411;58.386;15.560;2023-10-19T08:46:00;100561.53;;;4.89;96.38
10720;BME280;5411;58.386;15.560;2023-10-19T08:48:33;100565.53;;;5.01;94.79
10720;BME280;5411;58.386;15.560;2023-10-19T08:51:05;100562.91;;;5.10;92.27
10720;BME280;5411;58.386;15.560;2023-10-19T08:53:38;100571.31;;;4.89;92.06
10720;BME280;5411;58.386;15.560;2023-10-19T08:56:11;100561.94;;;4.69;93.08
10720;BME280;5411;58.386;15.560;2023-10-19T08:58:40;100567.41;;;4.67;94.09
10720;BME280;5411;58.386;15.560;2023-10-19T09:01:08;100566.56;;;4.66;95.41
10720;BME280;5411;58.386;15.560;2023-10-19T09:03:38;100573.38;;;4.69;94.54
10720;BME280;5411;58.386;15.560;2023-10-19T09:06:07;100565.25;;;4.71;93.91
10720;BME280;5411;58.386;15.560;2023-10-19T09:08:42;100561.50;;;4.81;94.99
10720;BME280;5411;58.386;15.560;2023-10-19T09:11:13;100565.19;;;4.96;93.12
10720;BME280;5411;58.386;15.560;2023-10-19T09:13:46;100568.34;;;5.08;91.13
10720;BME280;5411;58.386;15.560;2023-10-19T09:16:17;100578.84;;;5.26;88.94
10720;BME280;5411;58.386;15.560;2023-10-19T09:18:46;100586.81;;;5.34;88.61
10720;BME280;5411;58.386;15.560;2023-10-19T09:21:16;100576.50;;;5.23;88.98
10720;BME280;5411;58.386;15.560;2023-10-19T09:23:56;100571.72;;;5.26;90.82
10720;BME280;5411;58.386;15.560;2023-10-19T09:26:24;100574.53;;;5.17;87.41
10720;BME280;5411;58.386;15.560;2023-10-19T09:28:54;100581.75;;;4.90;89.46
10720;BME280;5411;58.386;15.560;2023-10-19T09:31:22;100603.41;;;4.78;88.93
10720;BME280;5411;58.386;15.560;2023-10-19T09:33:52;100594.53;;;4.61;90.22
10720;BME280;5411;58.386;15.560;2023-10-19T09:36:27;100600.13;;;4.50;89.91
10720;BME280;5411;58.386;15.560;2023-10-19T09:38:58;100596.75;;;4.40;90.98
10720;BME280;5411;58.386;15.560;2023-10-19T09:41:28;100584.66;;;4.37;89.59
10720;BME280;5411;58.386;15.560;2023-10-19T09:44:01;100598.41;;;4.41;91.12
10720;BME280;5411;58.386;15.560;2023-10-19T09:46:34;100592.94;;;4.42;90.73
10720;BME280;5411;58.386;15.560;2023-10-19T09:49:07;100586.00;;;4.41;90.80
10720;BME280;5411;58.386;15.560;2023-10-19T09:51:39;100592.28;;;4.40;91.32
10720;BME280;5411;58.386;15.560;2023-10-19T09:54:31;100603.06;;;4.39;92.65
10720;BME280;5411;58.386;15.560;2023-10-19T09:57:07;100596.91;;;4.38;92.07
10720;BME280;5411;58.386;15.560;2023-10-19T09:59:49;100596.81;;;4.48;90.84
10720;BME280;5411;58.386;15.560;2023-10-19T10:02:19;100588.88;;;4.56;90.38
10720;BME280;5411;58.386;15.560;2023-10-19T10:04:53;100586.78;;;4.68;86.73
10720;BME280;5411;58.386;15.560;2023-10-19T10:07:23;100591.81;;;4.79;85.84
10720;BME280;5411;58.386;15.560;2023-10-19T10:09:59;100594.13;;;4.82;85.66
10720;BME280;5411;58.386;15.560;2023-10-19T10:12:27;100597.31;;;4.93;85.76
10720;BME280;5411;58.386;15.560;2023-10-19T10:14:57;100593.72;;;5.03;85.47
10720;BME280;5411;58.386;15.560;2023-10-19T10:17:26;100581.81;;;5.15;85.52
10720;BME280;5411;58.386;15.560;2023-10-19T10:20:04;100576.50;;;5.23;85.41
10720;BME280;5411;58.386;15.560;2023-10-19T10:25:57;100595.25;;;5.21;82.36
10720;BME280;5411;58.386;15.560;2023-10-19T10:28:26;100580.31;;;5.04;82.41
10720;BME280;5411;58.386;15.560;2023-10-19T10:31:11;100597.50;;;5.00;82.79
10720;BME280;5411;58.386;15.560;2023-10-19T10:33:45;100583.06;;;4.94;83.18
10720;BME280;5411;58.386;15.560;2023-10-19T10:36:14;100590.19;;;4.94;84.39
10720;BME280;5411;58.386;15.560;2023-10-19T10:38:44;100575.63;;;4.98;85.64
10720;BME280;5411;58.386;15.560;2023-10-19T10:41:19;100588.38;;;4.94;84.41
10720;BME280;5411;58.386;15.560;2023-10-19T10:43:52;100573.59;;;4.84;83.64
10720;BME280;5411;58.386;15.560;2023-10-19T10:46:24;100568.44;;;4.82;84.87
10720;BME280;5411;58.386;15.560;2023-10-19T10:48:54;100572.44;;;4.86;83.78
10720;BME280;5411;58.386;15.560;2023-10-19T10:51:24;100563.50;;;4.87;84.25
10720;BME280;5411;58.386;15.560;2023-10-19T10:53:58;100569.81;;;4.86;83.92
10720;BME280;5411;58.386;15.560;2023-10-19T10:56:28;100566.16;;;4.87;84.99
10720;BME280;5411;58.386;15.560;2023-10-19T10:59:12;100559.88;;;4.96;84.30
10720;BME280;5411;58.386;15.560;2023-10-19T11:01:40;100553.13;;;5.02;84.97
10720;BME280;5411;58.386;15.560;2023-10-19T11:04:10;100554.44;;;5.06;84.07
10720;BME280;5411;58.386;15.560;2023-10-19T11:06:49;100555.63;;;5.12;83.60
10720;BME280;5411;58.386;15.560;2023-10-19T11:09:17;100549.16;;;5.14;83.09
10720;BME280;5411;58.386;15.560;2023-10-19T11:11:51;100547.34;;;5.15;83.00
10720;BME280;5411;58.386;15.560;2023-10-19T11:14:20;100549.16;;;5.14;82.65
10720;BME280;5411;58.386;15.560;2023-10-19T11:16:52;100553.63;;;5.22;82.92
10720;BME280;5411;58.386;15.560;2023-10-19T11:19:20;100554.16;;;5.33;82.15
10720;BME280;5411;58.386;15.560;2023-10-19T11:21:52;100543.72;;;5.40;81.14
10720;BME280;5411;58.386;15.560;2023-10-19T11:24:31;100555.16;;;5.49;81.57
10720;BME280;5411;58.386;15.560;2023-10-19T11:27:05;100543.38;;;5.51;81.94
10720;BME280;5411;58.386;15.560;2023-10-19T11:29:39;100540.38;;;5.46;82.16
10720;BME280;5411;58.386;15.560;2023-10-19T11:32:21;100541.06;;;5.48;81.01
10720;BME280;5411;58.386;15.560;2023-10-19T11:34:54;100538.75;;;5.45;79.24
10720;BME280;5411;58.386;15.560;2023-10-19T11:37:23;100539.41;;;5.39;79.35
10720;BME280;5411;58.386;15.560;2023-10-19T11:39:51;100536.75;;;5.31;78.77
10720;BME280;5411;58.386;15.560;2023-10-19T11:42:23;100535.75;;;5.24;77.47
10720;BME280;5411;58.386;15.560;2023-10-19T11:44:55;100541.56;;;5.19;78.67
10720;BME280;5411;58.386;15.560;2023-10-19T11:47:23;100538.03;;;5.11;79.57
10720;BME280;5411;58.386;15.560;2023-10-19T11:49:51;100534.41;;;5.12;79.90
10720;BME280;5411;58.386;15.560;2023-10-19T11:52:21;100534.09;;;5.15;79.99
10720;BME280;5411;58.386;15.560;2023-10-19T11:54:51;100528.09;;;5.21;79.57
10720;BME280;5411;58.386;15.560;2023-10-19T11:57:23;100539.56;;;5.29;78.53
10720;BME280;5411;58.386;15.560;2023-10-19T11:59:53;100536.91;;;5.37;76.61
10720;BME280;5411;58.386;15.560;2023-10-19T12:02:23;100529.44;;;5.49;77.76
10720;BME280;5411;58.386;15.560;2023-10-19T12:04:51;100513.84;;;5.62;77.07
10720;BME280;5411;58.386;15.560;2023-10-19T12:07:20;100508.41;;;5.72;78.02
10720;BME280;5411;58.386;15.560;2023-10-19T12:09:50;100514.50;;;5.81;77.03
10720;BME280;5411;58.386;15.560;2023-10-19T12:12:25;100509.88;;;5.83;75.10
10720;BME280;5411;58.386;15.560;2023-10-19T12:14:54;100511.88;;;5.72;71.54
10720;BME280;5411;58.386;15.560;2023-10-19T12:17:25;100524.97;;;5.66;72.79
10720;BME280;5411;58.386;15.560;2023-10-19T12:19:55;100512.56;;;5.58;73.56
10720;BME280;5411;58.386;15.560;2023-10-19T12:22:23;100521.34;;;5.51;72.50
10720;BME280;5411;58.386;15.560;2023-10-19T12:24:55;100505.25;;;5.44;72.26
10720;BME280;5411;58.386;15.560;2023-10-19T12:27:30;100489.50;;;5.43;72.60
10720;BME280;5411;58.386;15.560;2023-10-19T12:30:09;100503.25;;;5.46;73.82
10720;BME280;5411;58.386;15.560;2023-10-19T12:32:46;100495.81;;;5.42;74.64
10720;BME280;5411;58.386;15.560;2023-10-19T12:35:16;100497.13;;;5.37;76.06
10720;BME280;5411;58.386;15.560;2023-10-19T12:37:47;100493.66;;;5.45;77.69
10720;BME280;5411;58.386;15.560;2023-10-19T12:40:18;100485.69;;;5.53;78.34
10720;BME280;5411;58.386;15.560;2023-10-19T12:43:05;100493.63;;;5.53;77.08
10720;BME280;5411;58.386;15.560;2023-10-19T12:45:35;100501.25;;;5.48;75.94
10720;BME280;5411;58.386;15.560;2023-10-19T12:48:05;100490.31;;;5.51;78.02
10720;BME280;5411;58.386;15.560;2023-10-19T12:50:35;100483.84;;;5.54;77.14
10720;BME280;5411;58.386;15.560;2023-10-19T12:53:06;100484.19;;;5.51;76.62
10720;BME280;5411;58.386;15.560;2023-10-19T12:55:34;100478.72;;;5.44;74.95
10720;BME280;5411;58.386;15.560;2023-10-19T12:58:06;100484.69;;;5.38;75.75
10720;BME280;5411;58.386;15.560;2023-10-19T13:00:39;100488.34;;;5.45;74.98
10720;BME280;5411;58.386;15.560;2023-10-19T13:03:12;100454.50;;;5.47;74.41
10720;BME280;5411;58.386;15.560;2023-10-19T13:05:43;100453.00;;;5.53;74.82
10720;BME280;5411;58.386;15.560;2023-10-19T13:08:13;100456.81;;;5.50;75.46
10720;BME280;5411;58.386;15.560;2023-10-19T13:10:42;100448.34;;;5.47;73.90
10720;BME280;5411;58.386;15.560;2023-10-19T13:13:14;100452.53;;;5.41;73.74
10720;BME280;5411;58.386;15.560;2023-10-19T13:15:44;100453.19;;;5.35;74.82
10720;BME280;5411;58.386;15.560;2023-10-19T13:18:15;100454.69;;;5.29;74.07